sensor_id;sensor_type;location;lat;lon;timestamp;P1;durP1;ratioP1;P2;durP2;ratioP2
9292;SDS011;69930;48.232;12.384;2024-03-23T02:02:21;3.40;;;3.10;;
9292;SDS011;69930;48.232;12.384;2024-03-23T02:04:51;3.78;;;3.47;;
9292;SDS011;69930;48.232;12.384;2024-03-23T02:07:17;4.90;;;4.50;;
9292;SDS011;69930;48.232;12.384;2024-03-23T02:09:44;5.78;;;4.97;;
9292;SDS011;69930;48.232;12.384;2024-03-23T02:12:10;5.55;;;5.05;;
9292;SDS011;69930;48.232;12.384;2024-03-23T02:14:37;4.72;;;4.38;;
9292;SDS011;69930;48.232;12.384;2024-03-23T02:17:04;4.82;;;4.40;;
9292;SDS011;69930;48.232;12.384;2024-03-23T02:19:32;4.82;;;4.43;;
9292;SDS011;69930;48.232;12.384;2024-03-23T02:21:58;5.25;;;4.18;;
9292;SDS011;69930;48.232;12.384;2024-03-23T02:24:28;4.55;;;4.05;;
9292;SDS011;69930;48.232;12.384;2024-03-23T02:26:55;4.32;;;4.03;;
9292;SDS011;69930;48.232;12.384;2024-03-23T02:29:22;5.78;;;4.20;;
9292;SDS011;69930;48.232;12.384;2024-03-23T02:31:48;4.28;;;3.78;;
9292;SDS011;69930;48.232;12.384;2024-03-23T02:34:15;4.30;;;3.90;;
9292;SDS011;69930;48.232;12.384;2024-03-23T02:36:41;4.88;;;4.10;;
9292;SDS011;69930;48.232;12.384;2024-03-23T02:39:08;5.10;;;4.60;;
9292;SDS011;69930;48.232;12.384;2024-03-23T02:41:36;5.72;;;4.20;;
9292;SDS011;69930;48.232;12.384;2024-03-23T02:44:03;5.18;;;4.68;;
9292;SDS011;69930;48.232;12.384;2024-03-23T02:46:29;6.05;;;5.20;;
9292;SDS011;69930;48.232;12.384;2024-03-23T02:48:56;5.05;;;4.38;;
9292;SDS011;69930;48.232;12.384;2024-03-23T02:51:23;4.75;;;4.35;;
9292;SDS011;69930;48.232;12.384;2024-03-23T02:53:50;5.70;;;5.20;;
9292;SDS011;69930;48.232;12.384;2024-03-23T02:56:16;6.43;;;5.93;;
9292;SDS011;69930;48.232;12.384;2024-03-23T02:58:44;6.25;;;5.75;;
9292;SDS011;69930;48.232;12.384;2024-03-23T03:01:10;6.40;;;5.80;;
9292;SDS011;69930;48.232;12.384;2024-03-23T03:03:38;5.82;;;5.25;;
9292;SDS011;69930;48.232;12.384;2024-03-23T03:06:04;7.20;;;5.30;;
9292;SDS011;69930;48.232;12.384;2024-03-23T03:08:31;5.72;;;5.32;;
9292;SDS011;69930;48.232;12.384;2024-03-23T03:10:57;4.43;;;3.88;;
9292;SDS011;69930;48.232;12.384;2024-03-23T03:13:24;4.85;;;4.00;;
9292;SDS011;69930;48.232;12.384;2024-03-23T03:15:51;3.80;;;3.50;;
9292;SDS011;69930;48.232;12.384;2024-03-23T03:18:18;3.70;;;3.35;;
9292;SDS011;69930;48.232;12.384;2024-03-23T03:20:44;3.10;;;2.72;;
9292;SDS011;69930;48.232;12.384;2024-03-23T03:23:12;3.20;;;2.80;;
9292;SDS011;69930;48.232;12.384;2024-03-23T03:25:38;3.55;;;2.50;;
9292;SDS011;69930;48.232;12.384;2024-03-23T03:28:05;3.17;;;2.90;;
9292;SDS011;69930;48.232;12.384;2024-03-23T03:30:31;2.95;;;2.75;;
9292;SDS011;69930;48.232;12.384;2024-03-23T03:32:59;3.35;;;3.10;;
9292;SDS011;69930;48.232;12.384;2024-03-23T03:35:25;3.05;;;2.80;;
9292;SDS011;69930;48.232;12.384;2024-03-23T03:37:52;4.53;;;2.90;;
9292;SDS011;69930;48.232;12.384;2024-03-23T03:40:19;3.67;;;2.80;;
9292;SDS011;69930;48.232;12.384;2024-03-23T03:42:46;2.60;;;2.38;;
9292;SDS011;69930;48.232;12.384;2024-03-23T03:45:14;2.60;;;2.45;;
9292;SDS011;69930;48.232;12.384;2024-03-23T03:47:41;4.88;;;2.90;;
9292;SDS011;69930;48.232;12.384;2024-03-23T03:50:10;4.60;;;2.80;;
9292;SDS011;69930;48.232;12.384;2024-03-23T03:52:37;2.65;;;2.42;;
9292;SDS011;69930;48.232;12.384;2024-03-23T03:55:03;2.78;;;2.58;;
9292;SDS011;69930;48.232;12.384;2024-03-23T03:57:37;4.05;;;2.72;;
9292;SDS011;69930;48.232;12.384;2024-03-23T04:00:04;4.28;;;2.40;;
9292;SDS011;69930;48.232;12.384;2024-03-23T04:02:32;3.13;;;2.83;;
9292;SDS011;69930;48.232;12.384;2024-03-23T04:04:58;2.97;;;2.67;;
9292;SDS011;69930;48.232;12.384;2024-03-23T04:07:27;5.22;;;2.75;;
9292;SDS011;69930;48.232;12.384;2024-03-23T04:09:53;3.22;;;2.67;;
9292;SDS011;69930;48.232;12.384;2024-03-23T04:12:20;2.65;;;2.33;;
9292;SDS011;69930;48.232;12.384;2024-03-23T04:14:46;2.40;;;2.25;;
9292;SDS011;69930;48.232;12.384;2024-03-23T04:17:13;2.72;;;2.53;;
9292;SDS011;69930;48.232;12.384;2024-03-23T04:19:39;2.53;;;2.33;;
9292;SDS011;69930;48.232;12.384;2024-03-23T04:22:06;3.13;;;2.58;;
9292;SDS011;69930;48.232;12.384;2024-03-23T04:24:34;2.40;;;2.25;;
9292;SDS011;69930;48.232;12.384;2024-03-23T04:32:57;2.70;;;2.45;;
9292;SDS011;69930;48.232;12.384;2024-03-23T04:35:23;2.80;;;2.60;;
9292;SDS011;69930;48.232;12.384;2024-03-23T04:37:51;2.60;;;2.40;;
9292;SDS011;69930;48.232;12.384;2024-03-23T04:40:22;2.45;;;2.33;;
9292;SDS011;69930;48.232;12.384;2024-03-23T04:42:49;2.22;;;2.13;;
9292;SDS011;69930;48.232;12.384;2024-03-23T04:45:16;3.00;;;1.98;;
9292;SDS011;69930;48.232;12.384;2024-03-23T04:47:43;2.60;;;2.13;;
9292;SDS011;69930;48.232;12.384;2024-03-23T04:50:10;2.65;;;2.20;;
9292;SDS011;69930;48.232;12.384;2024-03-23T04:52:36;2.53;;;2.33;;
9292;SDS011;69930;48.232;12.384;2024-03-23T04:55:04;2.28;;;2.15;;
9292;SDS011;69930;48.232;12.384;2024-03-23T04:57:33;1.92;;;1.83;;
9292;SDS011;69930;48.232;12.384;2024-03-23T04:59:59;4.10;;;2.20;;
9292;SDS011;69930;48.232;12.384;2024-03-23T05:02:27;2.50;;;2.30;;
9292;SDS011;69930;48.232;12.384;2024-03-23T05:04:53;2.55;;;2.30;;
9292;SDS011;69930;48.232;12.384;2024-03-23T05:07:20;2.40;;;1.88;;
9292;SDS011;69930;48.232;12.384;2024-03-23T05:09:46;1.90;;;1.80;;
9292;SDS011;69930;48.232;12.384;2024-03-23T05:12:14;2.22;;;2.10;;
9292;SDS011;69930;48.232;12.384;2024-03-23T05:14:41;3.00;;;2.80;;
9292;SDS011;69930;48.232;12.384;2024-03-23T05:17:08;2.92;;;2.63;;
9292;SDS011;69930;48.232;12.384;2024-03-23T05:19:34;3.50;;;3.20;;
9292;SDS011;69930;48.232;12.384;2024-03-23T05:22:01;4.00;;;3.13;;
9292;SDS011;69930;48.232;12.384;2024-03-23T05:24:28;3.30;;;2.97;;
9292;SDS011;69930;48.232;12.384;2024-03-23T05:26:55;3.10;;;2.80;;
9292;SDS011;69930;48.232;12.384;2024-03-23T05:29:24;3.85;;;2.53;;
9292;SDS011;69930;48.232;12.384;2024-03-23T05:31:52;2.67;;;2.47;;
9292;SDS011;69930;48.232;12.384;2024-03-23T05:34:21;2.80;;;2.38;;
9292;SDS011;69930;48.232;12.384;2024-03-23T05:36:48;2.95;;;2.55;;
9292;SDS011;69930;48.232;12.384;2024-03-23T05:39:16;2.90;;;2.70;;
9292;SDS011;69930;48.232;12.384;2024-03-23T05:41:43;3.55;;;2.53;;
9292;SDS011;69930;48.232;12.384;2024-03-23T05:44:09;4.07;;;2.63;;
9292;SDS011;69930;48.232;12.384;2024-03-23T05:46:37;2.78;;;2.58;;
9292;SDS011;69930;48.232;12.384;2024-03-23T05:49:04;3.03;;;2.25;;
9292;SDS011;69930;48.232;12.384;2024-03-23T05:51:31;2.70;;;2.50;;
9292;SDS011;69930;48.232;12.384;2024-03-23T05:53:58;2.55;;;2.20;;
9292;SDS011;69930;48.232;12.384;2024-03-23T05:56:26;2.28;;;2.08;;
9292;SDS011;69930;48.232;12.384;2024-03-23T05:58:52;2.67;;;1.80;;
9292;SDS011;69930;48.232;12.384;2024-03-23T06:01:19;3.22;;;2.10;;
9292;SDS011;69930;48.232;12.384;2024-03-23T06:03:45;2.60;;;1.85;;
9292;SDS011;69930;48.232;12.384;2024-03-23T06:06:14;2.67;;;2.47;;
9292;SDS011;69930;48.232;12.384;2024-03-23T06:08:40;2.83;;;2.35;;
9292;SDS011;69930;48.232;12.384;2024-03-23T06:11:07;2.70;;;2.05;;
9292;SDS011;69930;48.232;12.384;2024-03-23T06:13:33;3.78;;;1.80;;
9292;SDS011;69930;48.232;12.384;2024-03-23T06:16:00;2.08;;;1.85;;
9292;SDS011;69930;48.232;12.384;2024-03-23T06:18:26;2.05;;;1.80;;
9292;SDS011;69930;48.232;12.384;2024-03-23T06:20:54;3.42;;;1.98;;
9292;SDS011;69930;48.232;12.384;2024-03-23T06:23:21;2.70;;;2.10;;
9292;SDS011;69930;48.232;12.384;2024-03-23T06:28:37;3.20;;;1.90;;
9292;SDS011;69930;48.232;12.384;2024-03-23T06:37:12;2.90;;;2.70;;
9292;SDS011;69930;48.232;12.384;2024-03-23T09:01:52;5.55;;;5.05;;
9292;SDS011;69930;48.232;12.384;2024-03-23T09:04:19;5.70;;;5.20;;
9292;SDS011;69930;48.232;12.384;2024-03-23T09:06:46;5.40;;;4.90;;
9292;SDS011;69930;48.232;12.384;2024-03-23T09:09:14;5.82;;;5.30;;
9292;SDS011;69930;48.232;12.384;2024-03-23T09:11:40;5.93;;;5.43;;
9292;SDS011;69930;48.232;12.384;2024-03-23T09:14:07;5.47;;;4.97;;
9292;SDS011;69930;48.232;12.384;2024-03-23T09:16:34;6.43;;;5.43;;
9292;SDS011;69930;48.232;12.384;2024-03-23T09:19:02;5.60;;;5.07;;
9292;SDS011;69930;48.232;12.384;2024-03-23T09:21:29;5.60;;;5.20;;
9292;SDS011;69930;48.232;12.384;2024-03-23T09:23:56;5.07;;;4.32;;
9292;SDS011;69930;48.232;12.384;2024-03-23T09:26:22;5.57;;;5.13;;
9292;SDS011;69930;48.232;12.384;2024-03-23T09:28:49;5.35;;;4.80;;
9292;SDS011;69930;48.232;12.384;2024-03-23T09:31:15;5.72;;;5.22;;
9292;SDS011;69930;48.232;12.384;2024-03-23T09:33:42;5.63;;;5.13;;
9292;SDS011;69930;48.232;12.384;2024-03-23T09:36:10;7.35;;;5.50;;
9292;SDS011;69930;48.232;12.384;2024-03-23T09:38:37;6.00;;;5.40;;
9292;SDS011;69930;48.232;12.384;2024-03-23T09:41:06;5.30;;;4.72;;
9292;SDS011;69930;48.232;12.384;2024-03-23T09:43:37;6.20;;;5.68;;
9292;SDS011;69930;48.232;12.384;2024-03-23T09:46:03;5.22;;;4.70;;
9292;SDS011;69930;48.232;12.384;2024-03-23T09:48:47;5.95;;;4.80;;
9292;SDS011;69930;48.232;12.384;2024-03-23T09:51:16;4.75;;;4.35;;
9292;SDS011;69930;48.232;12.384;2024-03-23T09:53:42;4.93;;;4.53;;
9292;SDS011;69930;48.232;12.384;2024-03-23T09:56:09;4.55;;;4.15;;
9292;SDS011;69930;48.232;12.384;2024-03-23T09:58:36;4.25;;;3.83;;
9292;SDS011;69930;48.232;12.384;2024-03-23T10:01:03;4.38;;;4.07;;
9292;SDS011;69930;48.232;12.384;2024-03-23T10:03:30;3.95;;;3.38;;
9292;SDS011;69930;48.232;12.384;2024-03-23T10:06:00;3.40;;;3.10;;
9292;SDS011;69930;48.232;12.384;2024-03-23T10:08:28;3.63;;;3.33;;
9292;SDS011;69930;48.232;12.384;2024-03-23T12:31:27;1.75;;;1.65;;
9292;SDS011;69930;48.232;12.384;2024-03-23T12:33:54;4.80;;;4.40;;
9292;SDS011;69930;48.232;12.384;2024-03-23T12:36:21;2.90;;;2.42;;
9292;SDS011;69930;48.232;12.384;2024-03-23T12:38:48;2.47;;;2.20;;
9292;SDS011;69930;48.232;12.384;2024-03-23T12:41:14;1.90;;;1.80;;
9292;SDS011;69930;48.232;12.384;2024-03-23T12:43:41;1.70;;;1.60;;
9292;SDS011;69930;48.232;12.384;2024-03-23T12:46:07;1.95;;;1.48;;
9292;SDS011;69930;48.232;12.384;2024-03-23T12:48:38;1.45;;;1.42;;
9292;SDS011;69930;48.232;12.384;2024-03-23T12:51:06;2.00;;;1.90;;
9292;SDS011;69930;48.232;12.384;2024-03-23T12:53:32;2.67;;;2.45;;
9292;SDS011;69930;48.232;12.384;2024-03-23T12:56:00;2.40;;;2.00;;
9292;SDS011;69930;48.232;12.384;2024-03-23T12:58:26;2.38;;;1.80;;
9292;SDS011;69930;48.232;12.384;2024-03-23T13:00:53;1.90;;;1.80;;
9292;SDS011;69930;48.232;12.384;2024-03-23T13:03:19;2.05;;;1.90;;
9292;SDS011;69930;48.232;12.384;2024-03-23T13:05:52;1.33;;;1.25;;
9292;SDS011;69930;48.232;12.384;2024-03-23T13:08:18;1.60;;;1.50;;
9292;SDS011;69930;48.232;12.384;2024-03-23T13:10:45;2.75;;;1.70;;
9292;SDS011;69930;48.232;12.384;2024-03-23T13:13:12;1.63;;;1.52;;
9292;SDS011;69930;48.232;12.384;2024-03-23T13:15:39;1.70;;;1.60;;
9292;SDS011;69930;48.232;12.384;2024-03-23T13:18:05;1.98;;;1.85;;
9292;SDS011;69930;48.232;12.384;2024-03-23T13:20:35;1.60;;;1.50;;
9292;SDS011;69930;48.232;12.384;2024-03-23T13:23:02;2.22;;;2.00;;
9292;SDS011;69930;48.232;12.384;2024-03-23T13:25:30;1.30;;;1.30;;
9292;SDS011;69930;48.232;12.384;2024-03-23T13:27:56;1.77;;;1.67;;
9292;SDS011;69930;48.232;12.384;2024-03-23T13:30:23;2.45;;;1.48;;
9292;SDS011;69930;48.232;12.384;2024-03-23T13:32:49;2.05;;;1.60;;
9292;SDS011;69930;48.232;12.384;2024-03-23T13:35:19;2.03;;;1.70;;
9292;SDS011;69930;48.232;12.384;2024-03-23T13:37:45;2.78;;;2.10;;
9292;SDS011;69930;48.232;12.384;2024-03-23T13:40:13;2.83;;;1.80;;
9292;SDS011;69930;48.232;12.384;2024-03-23T13:42:39;2.63;;;1.90;;
9292;SDS011;69930;48.232;12.384;2024-03-23T13:45:06;3.50;;;2.03;;
9292;SDS011;69930;48.232;12.384;2024-03-23T13:47:37;4.47;;;2.00;;
9292;SDS011;69930;48.232;12.384;2024-03-23T13:50:03;2.20;;;2.00;;
9292;SDS011;69930;48.232;12.384;2024-03-23T13:52:32;2.55;;;2.10;;
9292;SDS011;69930;48.232;12.384;2024-03-23T13:54:58;3.05;;;2.35;;
9292;SDS011;69930;48.232;12.384;2024-03-23T13:57:26;3.15;;;2.20;;
9292;SDS011;69930;48.232;12.384;2024-03-23T13:59:53;3.72;;;2.42;;
9292;SDS011;69930;48.232;12.384;2024-03-23T14:02:20;4.32;;;2.22;;
9292;SDS011;69930;48.232;12.384;2024-03-23T14:04:46;3.80;;;2.40;;
9292;SDS011;69930;48.232;12.384;2024-03-23T14:07:13;4.10;;;2.50;;
9292;SDS011;69930;48.232;12.384;2024-03-23T14:09:42;3.30;;;2.78;;
9292;SDS011;69930;48.232;12.384;2024-03-23T14:12:09;3.60;;;2.45;;
9292;SDS011;69930;48.232;12.384;2024-03-23T14:14:36;4.60;;;2.45;;
9292;SDS011;69930;48.232;12.384;2024-03-23T14:17:04;2.97;;;2.30;;
9292;SDS011;69930;48.232;12.384;2024-03-23T14:19:30;2.88;;;2.50;;
9292;SDS011;69930;48.232;12.384;2024-03-23T14:21:57;4.00;;;2.88;;
9292;SDS011;69930;48.232;12.384;2024-03-23T14:24:23;5.03;;;3.95;;
9292;SDS011;69930;48.232;12.384;2024-03-23T14:26:50;4.30;;;3.03;;
9292;SDS011;69930;48.232;12.384;2024-03-23T14:29:16;4.43;;;2.72;;
9292;SDS011;69930;48.232;12.384;2024-03-23T14:31:45;3.47;;;2.83;;
9292;SDS011;69930;48.232;12.384;2024-03-23T14:34:11;3.38;;;3.08;;
9292;SDS011;69930;48.232;12.384;2024-03-23T14:36:40;4.03;;;3.40;;
9292;SDS011;69930;48.232;12.384;2024-03-23T14:39:06;4.15;;;2.95;;
9292;SDS011;69930;48.232;12.384;2024-03-23T14:41:34;4.90;;;3.00;;
9292;SDS011;69930;48.232;12.384;2024-03-23T14:44:00;7.05;;;3.70;;
9292;SDS011;69930;48.232;12.384;2024-03-23T14:46:27;5.57;;;3.80;;
9292;SDS011;69930;48.232;12.384;2024-03-23T14:48:55;7.28;;;4.18;;
9292;SDS011;69930;48.232;12.384;2024-03-23T16:01:56;4.50;;;2.95;;
9292;SDS011;69930;48.232;12.384;2024-03-23T16:04:23;3.90;;;3.13;;
9292;SDS011;69930;48.232;12.384;2024-03-23T16:06:50;6.22;;;3.83;;
9292;SDS011;69930;48.232;12.384;2024-03-23T16:09:17;7.95;;;3.92;;
9292;SDS011;69930;48.232;12.384;2024-03-23T16:11:44;8.13;;;3.63;;
9292;SDS011;69930;48.232;12.384;2024-03-23T16:14:11;5.57;;;3.53;;
9292;SDS011;69930;48.232;12.384;2024-03-23T16:16:37;5.22;;;3.75;;
9292;SDS011;69930;48.232;12.384;2024-03-23T16:19:05;4.43;;;3.30;;
9292;SDS011;69930;48.232;12.384;2024-03-23T16:21:32;4.78;;;3.30;;
9292;SDS011;69930;48.232;12.384;2024-03-23T16:23:59;6.13;;;3.55;;
9292;SDS011;69930;48.232;12.384;2024-03-23T16:26:25;4.85;;;3.70;;
9292;SDS011;69930;48.232;12.384;2024-03-23T16:31:48;5.00;;;3.85;;
9292;SDS011;69930;48.232;12.384;2024-03-23T16:43:38;3.85;;;3.33;;
9292;SDS011;69930;48.232;12.384;2024-03-23T16:46:20;4.40;;;3.38;;
9292;SDS011;69930;48.232;12.384;2024-03-23T16:49:01;4.43;;;3.13;;
9292;SDS011;69930;48.232;12.384;2024-03-23T16:51:43;4.28;;;3.15;;
9292;SDS011;69930;48.232;12.384;2024-03-23T16:54:24;5.88;;;3.10;;
9292;SDS011;69930;48.232;12.384;2024-03-23T17:13:11;4.85;;;3.42;;
9292;SDS011;69930;48.232;12.384;2024-03-23T17:16:08;6.32;;;3.40;;
9292;SDS011;69930;48.232;12.384;2024-03-23T17:18:49;5.10;;;3.60;;
9292;SDS011;69930;48.232;12.384;2024-03-23T17:21:17;6.10;;;4.03;;
9292;SDS011;69930;48.232;12.384;2024-03-23T17:23:44;5.30;;;3.17;;
9292;SDS011;69930;48.232;12.384;2024-03-23T17:26:12;3.58;;;3.10;;
9292;SDS011;69930;48.232;12.384;2024-03-23T17:28:40;6.22;;;3.50;;
9292;SDS011;69930;48.232;12.384;2024-03-23T17:31:14;4.30;;;3.60;;
9292;SDS011;69930;48.232;12.384;2024-03-23T17:33:41;5.85;;;2.72;;
9292;SDS011;69930;48.232;12.384;2024-03-23T17:36:08;4.68;;;3.13;;
9292;SDS011;69930;48.232;12.384;2024-03-23T17:38:37;5.15;;;3.55;;
9292;SDS011;69930;48.232;12.384;2024-03-23T17:41:05;5.53;;;3.28;;
9292;SDS011;69930;48.232;12.384;2024-03-23T17:43:33;5.22;;;3.40;;
9292;SDS011;69930;48.232;12.384;2024-03-23T17:46:00;5.32;;;3.60;;
9292;SDS011;69930;48.232;12.384;2024-03-23T17:48:28;7.53;;;3.92;;
9292;SDS011;69930;48.232;12.384;2024-03-23T17:51:01;5.88;;;3.80;;
9292;SDS011;69930;48.232;12.384;2024-03-23T19:11:20;5.20;;;2.17;;
9292;SDS011;69930;48.232;12.384;2024-03-23T19:14:01;3.03;;;2.00;;
9292;SDS011;69930;48.232;12.384;2024-03-23T19:16:42;2.22;;;1.70;;
9292;SDS011;69930;48.232;12.384;2024-03-23T20:00:30;3.25;;;2.28;;
9292;SDS011;69930;48.232;12.384;2024-03-23T20:03:13;2.15;;;1.80;;
9292;SDS011;69930;48.232;12.384;2024-03-23T20:05:57;3.08;;;1.77;;
9292;SDS011;69930;48.232;12.384;2024-03-23T20:09:19;3.10;;;1.67;;
9292;SDS011;69930;48.232;12.384;2024-03-23T20:20:48;2.67;;;1.58;;
9292;SDS011;69930;48.232;12.384;2024-03-23T20:23:16;2.00;;;1.35;;
9292;SDS011;69930;48.232;12.384;2024-03-23T20:25:49;3.03;;;1.60;;
9292;SDS011;69930;48.232;12.384;2024-03-23T20:28:32;2.90;;;1.33;;
9292;SDS011;69930;48.232;12.384;2024-03-23T20:30:59;2.38;;;1.23;;
9292;SDS011;69930;48.232;12.384;2024-03-23T20:33:28;2.65;;;1.40;;
9292;SDS011;69930;48.232;12.384;2024-03-23T20:38:55;3.63;;;1.42;;
9292;SDS011;69930;48.232;12.384;2024-03-23T20:41:21;3.60;;;1.50;;
9292;SDS011;69930;48.232;12.384;2024-03-23T20:43:49;2.20;;;1.50;;
9292;SDS011;69930;48.232;12.384;2024-03-23T20:46:16;3.17;;;1.73;;
9292;SDS011;69930;48.232;12.384;2024-03-23T20:48:43;2.70;;;1.73;;
9292;SDS011;69930;48.232;12.384;2024-03-23T20:51:16;3.65;;;1.35;;
9292;SDS011;69930;48.232;12.384;2024-03-23T21:51:59;2.05;;;1.30;;
9292;SDS011;69930;48.232;12.384;2024-03-23T21:54:29;2.20;;;1.30;;
9292;SDS011;69930;48.232;12.384;2024-03-23T21:56:55;2.80;;;1.52;;
9292;SDS011;69930;48.232;12.384;2024-03-23T21:59:22;2.85;;;1.40;;
9292;SDS011;69930;48.232;12.384;2024-03-23T22:01:48;3.38;;;1.60;;
9292;SDS011;69930;48.232;12.384;2024-03-23T22:04:15;3.25;;;1.40;;
9292;SDS011;69930;48.232;12.384;2024-03-23T22:06:42;2.25;;;1.58;;
9292;SDS011;69930;48.232;12.384;2024-03-23T22:09:12;2.40;;;1.50;;
9292;SDS011;69930;48.232;12.384;2024-03-23T22:11:38;2.42;;;1.67;;
9292;SDS011;69930;48.232;12.384;2024-03-23T22:14:05;3.20;;;1.30;;
9292;SDS011;69930;48.232;12.384;2024-03-23T22:16:32;1.73;;;1.55;;
9292;SDS011;69930;48.232;12.384;2024-03-23T22:19:00;2.67;;;1.45;;
9292;SDS011;69930;48.232;12.384;2024-03-23T22:21:26;2.83;;;1.50;;
9292;SDS011;69930;48.232;12.384;2024-03-23T22:23:53;2.38;;;1.40;;
9292;SDS011;69930;48.232;12.384;2024-03-23T22:26:21;2.63;;;1.60;;
9292;SDS011;69930;48.232;12.384;2024-03-23T22:28:48;3.08;;;1.60;;
9292;SDS011;69930;48.232;12.384;2024-03-23T22:31:14;2.42;;;1.70;;
9292;SDS011;69930;48.232;12.384;2024-03-23T22:33:41;2.53;;;1.50;;
9292;SDS011;69930;48.232;12.384;2024-03-23T22:36:08;3.10;;;1.70;;
9292;SDS011;69930;48.232;12.384;2024-03-23T22:38:35;2.97;;;1.60;;
9292;SDS011;69930;48.232;12.384;2024-03-23T22:41:02;2.83;;;1.75;;
9292;SDS011;69930;48.232;12.384;2024-03-23T22:43:38;3.28;;;1.60;;
9292;SDS011;69930;48.232;12.384;2024-03-23T22:46:04;2.08;;;1.60;;
9292;SDS011;69930;48.232;12.384;2024-03-23T22:48:32;2.08;;;1.67;;
9292;SDS011;69930;48.232;12.384;2024-03-23T22:51:01;2.28;;;1.50;;
9292;SDS011;69930;48.232;12.384;2024-03-23T22:53:30;2.38;;;1.40;;
9292;SDS011;69930;48.232;12.384;2024-03-23T22:55:57;2.80;;;1.50;;
9292;SDS011;69930;48.232;12.384;2024-03-23T22:58:24;4.63;;;1.83;;
9292;SDS011;69930;48.232;12.384;2024-03-23T23:00:53;2.58;;;1.70;;
9292;SDS011;69930;48.232;12.384;2024-03-23T23:03:22;2.50;;;1.80;;
9292;SDS011;69930;48.232;12.384;2024-03-23T23:05:57;3.53;;;1.42;;
9292;SDS011;69930;48.232;12.384;2024-03-23T23:08:26;2.35;;;1.42;;
9292;SDS011;69930;48.232;12.384;2024-03-23T23:10:52;2.45;;;1.30;;
9292;SDS011;69930;48.232;12.384;2024-03-23T23:13:33;2.80;;;1.30;;
9292;SDS011;69930;48.232;12.384;2024-03-23T23:16:16;2.33;;;1.30;;
9292;SDS011;69930;48.232;12.384;2024-03-23T23:18:44;2.33;;;1.35;;
9292;SDS011;69930;48.232;12.384;2024-03-23T23:21:10;3.70;;;1.20;;
9292;SDS011;69930;48.232;12.384;2024-03-23T23:23:38;1.73;;;1.20;;
9292;SDS011;69930;48.232;12.384;2024-03-23T23:26:04;2.22;;;1.35;;
9292;SDS011;69930;48.232;12.384;2024-03-23T23:28:31;2.00;;;1.02;;
9292;SDS011;69930;48.232;12.384;2024-03-23T23:30:58;1.10;;;1.05;;
9292;SDS011;69930;48.232;12.384;2024-03-23T23:33:29;2.85;;;1.35;;
9292;SDS011;69930;48.232;12.384;2024-03-23T23:35:55;3.42;;;1.00;;
9292;SDS011;69930;48.232;12.384;2024-03-23T23:38:23;1.63;;;1.00;;
9292;SDS011;69930;48.232;12.384;2024-03-23T23:40:50;1.73;;;1.17;;
9292;SDS011;69930;48.232;12.384;2024-03-23T23:43:25;1.50;;;1.20;;
9292;SDS011;69930;48.232;12.384;2024-03-23T23:45:51;1.85;;;1.17;;
9292;SDS011;69930;48.232;12.384;2024-03-23T23:48:20;2.65;;;1.13;;
9292;SDS011;69930;48.232;12.384;2024-03-23T23:50:49;2.22;;;1.20;;
9292;SDS011;69930;48.232;12.384;2024-03-23T23:53:16;3.67;;;1.33;;
9292;SDS011;69930;48.232;12.384;2024-03-23T23:55:44;1.55;;;0.90;;
9292;SDS011;69930;48.232;12.384;2024-03-23T23:58:10;1.90;;;1.20;;
